sensor_id;sensor_type;location;lat;lon;timestamp;temperature;humidity
55785;DHT22;41709;52.536;5.688;2023-07-29T00:01:20;18.90;91.20
55785;DHT22;41709;52.536;5.688;2023-07-29T00:03:45;18.80;91.20
55785;DHT22;41709;52.536;5.688;2023-07-29T00:06:11;18.80;91.30
55785;DHT22;41709;52.536;5.688;2023-07-29T00:08:37;18.80;91.30
55785;DHT22;41709;52.536;5.688;2023-07-29T00:11:02;18.80;91.30
55785;DHT22;41709;52.536;5.688;2023-07-29T00:13:28;18.80;91.30
55785;DHT22;41709;52.536;5.688;2023-07-29T00:15:54;18.80;91.40
55785;DHT22;41709;52.536;5.688;2023-07-29T00:18:21;18.80;91.40
55785;DHT22;41709;52.536;5.688;2023-07-29T00:20:47;18.70;91.40
55785;DHT22;41709;52.536;5.688;2023-07-29T00:23:12;18.80;91.40
55785;DHT22;41709;52.536;5.688;2023-07-29T00:25:38;18.70;91.50
55785;DHT22;41709;52.536;5.688;2023-07-29T00:28:03;18.70;91.40
55785;DHT22;41709;52.536;5.688;2023-07-29T00:30:29;18.60;91.40
55785;DHT22;41709;52.536;5.688;2023-07-29T00:32:55;18.60;91.70
55785;DHT22;41709;52.536;5.688;2023-07-29T00:35:20;18.60;91.30
55785;DHT22;41709;52.536;5.688;2023-07-29T00:37:46;18.60;91.30
55785;DHT22;41709;52.536;5.688;2023-07-29T00:40:16;18.60;91.30
55785;DHT22;41709;52.536;5.688;2023-07-29T00:42:44;18.60;91.60
55785;DHT22;41709;52.536;5.688;2023-07-29T00:45:10;18.50;91.30
55785;DHT22;41709;52.536;5.688;2023-07-29T00:47:35;18.50;91.30
55785;DHT22;41709;52.536;5.688;2023-07-29T00:50:01;18.50;91.20
55785;DHT22;41709;52.536;5.688;2023-07-29T00:52:27;18.50;91.20
55785;DHT22;41709;52.536;5.688;2023-07-29T00:54:53;18.40;91.20
55785;DHT22;41709;52.536;5.688;2023-07-29T00:57:19;18.40;91.30
55785;DHT22;41709;52.536;5.688;2023-07-29T00:59:45;18.30;91.30
55785;DHT22;41709;52.536;5.688;2023-07-29T01:02:11;18.30;91.30
55785;DHT22;41709;52.536;5.688;2023-07-29T01:04:37;18.30;91.20
55785;DHT22;41709;52.536;5.688;2023-07-29T01:08:11;18.30;91.30
55785;DHT22;41709;52.536;5.688;2023-07-29T01:10:10;18.30;91.30
55785;DHT22;41709;52.536;5.688;2023-07-29T01:12:51;18.30;91.20
55785;DHT22;41709;52.536;5.688;2023-07-29T01:15:29;18.20;91.20
55785;DHT22;41709;52.536;5.688;2023-07-29T01:18:01;18.20;91.20
55785;DHT22;41709;52.536;5.688;2023-07-29T01:20:33;18.20;91.20
55785;DHT22;41709;52.536;5.688;2023-07-29T01:22:59;18.20;91.20
55785;DHT22;41709;52.536;5.688;2023-07-29T01:25:25;18.20;91.20
55785;DHT22;41709;52.536;5.688;2023-07-29T01:27:52;18.20;91.20
55785;DHT22;41709;52.536;5.688;2023-07-29T01:30:18;18.20;91.20
55785;DHT22;41709;52.536;5.688;2023-07-29T01:33:08;18.20;91.20
55785;DHT22;41709;52.536;5.688;2023-07-29T01:35:52;18.20;91.20
55785;DHT22;41709;52.536;5.688;2023-07-29T01:38:27;18.10;91.20
55785;DHT22;41709;52.536;5.688;2023-07-29T01:40:58;18.10;91.10
55785;DHT22;41709;52.536;5.688;2023-07-29T01:43:27;18.10;91.20
55785;DHT22;41709;52.536;5.688;2023-07-29T01:45:53;18.10;91.10
55785;DHT22;41709;52.536;5.688;2023-07-29T01:48:19;18.10;91.20
55785;DHT22;41709;52.536;5.688;2023-07-29T01:50:44;18.10;91.20
55785;DHT22;41709;52.536;5.688;2023-07-29T01:53:10;18.10;91.20
55785;DHT22;41709;52.536;5.688;2023-07-29T01:55:35;18.10;91.10
55785;DHT22;41709;52.536;5.688;2023-07-29T01:58:01;18.10;91.20
55785;DHT22;41709;52.536;5.688;2023-07-29T02:00:27;18.10;91.20
55785;DHT22;41709;52.536;5.688;2023-07-29T02:02:52;18.10;91.10
55785;DHT22;41709;52.536;5.688;2023-07-29T02:05:18;18.10;91.10
55785;DHT22;41709;52.536;5.688;2023-07-29T02:07:43;18.10;91.10
55785;DHT22;41709;52.536;5.688;2023-07-29T02:10:09;18.10;91.00
55785;DHT22;41709;52.536;5.688;2023-07-29T02:12:34;18.10;91.00
55785;DHT22;41709;52.536;5.688;2023-07-29T02:15:00;18.10;90.90
55785;DHT22;41709;52.536;5.688;2023-07-29T02:17:26;18.10;90.80
55785;DHT22;41709;52.536;5.688;2023-07-29T02:19:51;18.10;90.80
55785;DHT22;41709;52.536;5.688;2023-07-29T02:22:18;18.10;90.80
55785;DHT22;41709;52.536;5.688;2023-07-29T02:24:44;18.10;90.70
55785;DHT22;41709;52.536;5.688;2023-07-29T02:27:10;18.10;90.70
55785;DHT22;41709;52.536;5.688;2023-07-29T02:29:36;18.10;90.70
55785;DHT22;41709;52.536;5.688;2023-07-29T02:32:02;18.10;90.70
55785;DHT22;41709;52.536;5.688;2023-07-29T02:34:28;18.10;90.60
55785;DHT22;41709;52.536;5.688;2023-07-29T02:36:54;18.10;90.60
55785;DHT22;41709;52.536;5.688;2023-07-29T02:39:19;18.10;90.50
55785;DHT22;41709;52.536;5.688;2023-07-29T02:41:45;18.10;90.50
55785;DHT22;41709;52.536;5.688;2023-07-29T02:44:11;18.10;90.40
55785;DHT22;41709;52.536;5.688;2023-07-29T02:46:37;18.10;90.40
55785;DHT22;41709;52.536;5.688;2023-07-29T02:49:03;18.10;90.40
55785;DHT22;41709;52.536;5.688;2023-07-29T02:51:29;18.00;90.50
55785;DHT22;41709;52.536;5.688;2023-07-29T02:53:55;18.00;90.50
55785;DHT22;41709;52.536;5.688;2023-07-29T02:56:21;18.00;90.50
55785;DHT22;41709;52.536;5.688;2023-07-29T02:58:46;18.10;90.60
55785;DHT22;41709;52.536;5.688;2023-07-29T03:01:12;18.00;90.70
55785;DHT22;41709;52.536;5.688;2023-07-29T03:03:39;17.90;90.70
55785;DHT22;41709;52.536;5.688;2023-07-29T03:06:09;17.90;90.80
55785;DHT22;41709;52.536;5.688;2023-07-29T03:08:35;17.90;90.80
55785;DHT22;41709;52.536;5.688;2023-07-29T03:11:06;17.90;90.90
55785;DHT22;41709;52.536;5.688;2023-07-29T03:13:32;17.80;90.80
55785;DHT22;41709;52.536;5.688;2023-07-29T03:16:09;17.80;90.90
55785;DHT22;41709;52.536;5.688;2023-07-29T03:18:35;17.80;90.90
55785;DHT22;41709;52.536;5.688;2023-07-29T03:21:01;17.80;91.00
55785;DHT22;41709;52.536;5.688;2023-07-29T03:23:28;17.80;91.00
55785;DHT22;41709;52.536;5.688;2023-07-29T03:25:58;17.80;91.00
55785;DHT22;41709;52.536;5.688;2023-07-29T03:28:28;17.80;91.00
55785;DHT22;41709;52.536;5.688;2023-07-29T03:30:55;17.90;91.10
55785;DHT22;41709;52.536;5.688;2023-07-29T03:33:21;17.80;91.20
55785;DHT22;41709;52.536;5.688;2023-07-29T03:35:46;17.80;91.20
55785;DHT22;41709;52.536;5.688;2023-07-29T03:38:12;17.70;91.20
55785;DHT22;41709;52.536;5.688;2023-07-29T03:40:39;17.80;91.30
55785;DHT22;41709;52.536;5.688;2023-07-29T03:43:04;17.70;91.30
55785;DHT22;41709;52.536;5.688;2023-07-29T03:45:31;17.70;91.40
55785;DHT22;41709;52.536;5.688;2023-07-29T03:47:56;17.70;91.50
55785;DHT22;41709;52.536;5.688;2023-07-29T03:50:22;17.70;91.50
55785;DHT22;41709;52.536;5.688;2023-07-29T03:52:48;17.70;91.60
55785;DHT22;41709;52.536;5.688;2023-07-29T03:55:13;17.70;91.70
55785;DHT22;41709;52.536;5.688;2023-07-29T03:57:39;17.70;91.70
55785;DHT22;41709;52.536;5.688;2023-07-29T04:00:05;17.70;91.90
55785;DHT22;41709;52.536;5.688;2023-07-29T04:02:31;17.70;91.90
55785;DHT22;41709;52.536;5.688;2023-07-29T04:04:56;17.70;92.00
55785;DHT22;41709;52.536;5.688;2023-07-29T04:07:22;17.70;92.10
55785;DHT22;41709;52.536;5.688;2023-07-29T04:09:48;17.60;92.10
55785;DHT22;41709;52.536;5.688;2023-07-29T04:12:14;17.60;92.20
55785;DHT22;41709;52.536;5.688;2023-07-29T04:14:40;17.60;92.30
55785;DHT22;41709;52.536;5.688;2023-07-29T04:17:07;17.60;92.30
55785;DHT22;41709;52.536;5.688;2023-07-29T04:19:33;17.60;92.40
55785;DHT22;41709;52.536;5.688;2023-07-29T04:21:58;17.60;92.40
55785;DHT22;41709;52.536;5.688;2023-07-29T04:24:24;17.50;92.50
55785;DHT22;41709;52.536;5.688;2023-07-29T04:26:50;17.50;92.50
55785;DHT22;41709;52.536;5.688;2023-07-29T04:29:16;17.60;92.60
55785;DHT22;41709;52.536;5.688;2023-07-29T04:31:41;17.50;92.60
55785;DHT22;41709;52.536;5.688;2023-07-29T04:34:08;17.50;92.70
55785;DHT22;41709;52.536;5.688;2023-07-29T04:36:33;17.40;92.70
55785;DHT22;41709;52.536;5.688;2023-07-29T04:38:59;17.40;92.80
55785;DHT22;41709;52.536;5.688;2023-07-29T04:41:24;17.40;92.90
55785;DHT22;41709;52.536;5.688;2023-07-29T04:43:50;17.40;92.90
55785;DHT22;41709;52.536;5.688;2023-07-29T04:46:16;17.40;92.90
55785;DHT22;41709;52.536;5.688;2023-07-29T04:48:41;17.40;93.00
55785;DHT22;41709;52.536;5.688;2023-07-29T04:51:07;17.40;93.00
55785;DHT22;41709;52.536;5.688;2023-07-29T04:53:32;17.40;93.00
55785;DHT22;41709;52.536;5.688;2023-07-29T04:56:00;17.30;93.00
55785;DHT22;41709;52.536;5.688;2023-07-29T04:58:26;17.30;93.10
55785;DHT22;41709;52.536;5.688;2023-07-29T05:00:54;17.30;93.20
55785;DHT22;41709;52.536;5.688;2023-07-29T05:03:19;17.30;93.20
55785;DHT22;41709;52.536;5.688;2023-07-29T05:05:45;17.30;93.20
55785;DHT22;41709;52.536;5.688;2023-07-29T05:08:11;17.20;93.20
55785;DHT22;41709;52.536;5.688;2023-07-29T05:10:36;17.20;93.30
55785;DHT22;41709;52.536;5.688;2023-07-29T05:13:02;17.20;93.50
55785;DHT22;41709;52.536;5.688;2023-07-29T05:15:27;17.10;93.50
55785;DHT22;41709;52.536;5.688;2023-07-29T05:17:53;17.10;93.60
55785;DHT22;41709;52.536;5.688;2023-07-29T05:20:19;17.10;93.50
55785;DHT22;41709;52.536;5.688;2023-07-29T05:22:44;17.20;93.50
55785;DHT22;41709;52.536;5.688;2023-07-29T05:25:10;17.10;93.50
55785;DHT22;41709;52.536;5.688;2023-07-29T05:27:35;17.10;93.60
55785;DHT22;41709;52.536;5.688;2023-07-29T05:30:01;17.10;93.60
55785;DHT22;41709;52.536;5.688;2023-07-29T05:32:26;17.20;93.60
55785;DHT22;41709;52.536;5.688;2023-07-29T05:34:52;17.20;93.50
55785;DHT22;41709;52.536;5.688;2023-07-29T05:37:17;17.20;93.50
55785;DHT22;41709;52.536;5.688;2023-07-29T05:39:43;17.20;93.50
55785;DHT22;41709;52.536;5.688;2023-07-29T05:42:08;17.20;93.50
55785;DHT22;41709;52.536;5.688;2023-07-29T05:44:34;17.20;93.60
55785;DHT22;41709;52.536;5.688;2023-07-29T05:47:00;17.20;93.60
55785;DHT22;41709;52.536;5.688;2023-07-29T05:49:26;17.20;93.70
55785;DHT22;41709;52.536;5.688;2023-07-29T05:51:51;17.20;94.00
55785;DHT22;41709;52.536;5.688;2023-07-29T05:54:18;17.30;93.70
55785;DHT22;41709;52.536;5.688;2023-07-29T05:56:43;17.40;93.60
55785;DHT22;41709;52.536;5.688;2023-07-29T05:59:09;17.30;93.60
55785;DHT22;41709;52.536;5.688;2023-07-29T06:01:34;17.40;93.60
55785;DHT22;41709;52.536;5.688;2023-07-29T06:04:00;17.40;93.50
55785;DHT22;41709;52.536;5.688;2023-07-29T06:06:26;17.40;93.50
55785;DHT22;41709;52.536;5.688;2023-07-29T06:08:52;17.50;93.50
55785;DHT22;41709;52.536;5.688;2023-07-29T06:11:18;17.50;93.30
55785;DHT22;41709;52.536;5.688;2023-07-29T06:13:43;17.50;93.40
55785;DHT22;41709;52.536;5.688;2023-07-29T06:16:09;17.50;93.50
55785;DHT22;41709;52.536;5.688;2023-07-29T06:18:34;17.50;93.30
55785;DHT22;41709;52.536;5.688;2023-07-29T06:21:00;17.50;93.20
55785;DHT22;41709;52.536;5.688;2023-07-29T06:23:25;17.50;93.20
55785;DHT22;41709;52.536;5.688;2023-07-29T06:25:51;17.60;93.20
55785;DHT22;41709;52.536;5.688;2023-07-29T06:28:17;17.60;93.10
55785;DHT22;41709;52.536;5.688;2023-07-29T06:30:42;17.60;93.10
55785;DHT22;41709;52.536;5.688;2023-07-29T06:33:08;17.70;93.10
55785;DHT22;41709;52.536;5.688;2023-07-29T06:35:34;17.70;93.10
55785;DHT22;41709;52.536;5.688;2023-07-29T06:37:59;17.80;93.10
55785;DHT22;41709;52.536;5.688;2023-07-29T06:40:25;17.80;93.00
55785;DHT22;41709;52.536;5.688;2023-07-29T06:42:51;17.80;93.00
55785;DHT22;41709;52.536;5.688;2023-07-29T06:45:17;17.90;93.10
55785;DHT22;41709;52.536;5.688;2023-07-29T06:47:42;18.00;93.20
55785;DHT22;41709;52.536;5.688;2023-07-29T06:50:08;17.90;92.90
55785;DHT22;41709;52.536;5.688;2023-07-29T06:52:34;18.00;93.10
55785;DHT22;41709;52.536;5.688;2023-07-29T06:54:59;18.00;92.90
55785;DHT22;41709;52.536;5.688;2023-07-29T06:57:25;18.10;92.80
55785;DHT22;41709;52.536;5.688;2023-07-29T06:59:50;18.10;92.80
55785;DHT22;41709;52.536;5.688;2023-07-29T07:02:16;18.20;92.90
55785;DHT22;41709;52.536;5.688;2023-07-29T07:04:41;18.30;93.10
55785;DHT22;41709;52.536;5.688;2023-07-29T07:07:07;18.30;92.80
55785;DHT22;41709;52.536;5.688;2023-07-29T07:09:33;18.40;92.90
55785;DHT22;41709;52.536;5.688;2023-07-29T07:11:58;18.50;92.70
55785;DHT22;41709;52.536;5.688;2023-07-29T07:14:24;18.50;92.70
55785;DHT22;41709;52.536;5.688;2023-07-29T07:16:50;18.60;92.70
55785;DHT22;41709;52.536;5.688;2023-07-29T07:19:15;18.70;92.70
55785;DHT22;41709;52.536;5.688;2023-07-29T07:21:41;18.70;92.90
55785;DHT22;41709;52.536;5.688;2023-07-29T07:24:06;18.70;92.50
55785;DHT22;41709;52.536;5.688;2023-07-29T07:26:32;18.70;92.60
55785;DHT22;41709;52.536;5.688;2023-07-29T07:28:58;18.70;92.80
55785;DHT22;41709;52.536;5.688;2023-07-29T07:31:23;18.80;92.80
55785;DHT22;41709;52.536;5.688;2023-07-29T07:33:49;18.90;93.40
55785;DHT22;41709;52.536;5.688;2023-07-29T07:36:14;18.90;92.30
55785;DHT22;41709;52.536;5.688;2023-07-29T07:38:41;19.00;92.20
55785;DHT22;41709;52.536;5.688;2023-07-29T07:41:06;19.00;92.20
55785;DHT22;41709;52.536;5.688;2023-07-29T07:43:32;19.00;92.10
55785;DHT22;41709;52.536;5.688;2023-07-29T07:46:00;18.90;92.20
55785;DHT22;41709;52.536;5.688;2023-07-29T07:48:26;19.00;92.20
55785;DHT22;41709;52.536;5.688;2023-07-29T07:50:52;19.00;92.10
55785;DHT22;41709;52.536;5.688;2023-07-29T07:53:17;19.00;91.60
55785;DHT22;41709;52.536;5.688;2023-07-29T07:55:43;18.90;91.70
55785;DHT22;41709;52.536;5.688;2023-07-29T07:58:08;19.00;92.00
55785;DHT22;41709;52.536;5.688;2023-07-29T08:00:34;19.10;92.10
55785;DHT22;41709;52.536;5.688;2023-07-29T08:03:00;19.00;91.90
55785;DHT22;41709;52.536;5.688;2023-07-29T08:05:25;19.10;91.90
55785;DHT22;41709;52.536;5.688;2023-07-29T08:07:51;19.00;91.50
55785;DHT22;41709;52.536;5.688;2023-07-29T08:10:16;19.10;91.40
55785;DHT22;41709;52.536;5.688;2023-07-29T08:12:42;19.10;91.50
55785;DHT22;41709;52.536;5.688;2023-07-29T08:15:07;19.20;91.60
55785;DHT22;41709;52.536;5.688;2023-07-29T08:17:33;19.20;91.60
55785;DHT22;41709;52.536;5.688;2023-07-29T08:19:59;19.30;91.50
55785;DHT22;41709;52.536;5.688;2023-07-29T08:22:24;19.30;91.30
55785;DHT22;41709;52.536;5.688;2023-07-29T08:24:50;19.30;91.80
55785;DHT22;41709;52.536;5.688;2023-07-29T08:27:15;19.40;91.80
55785;DHT22;41709;52.536;5.688;2023-07-29T08:29:41;19.50;91.30
55785;DHT22;41709;52.536;5.688;2023-07-29T08:32:07;19.50;91.40
55785;DHT22;41709;52.536;5.688;2023-07-29T08:34:32;19.60;91.30
55785;DHT22;41709;52.536;5.688;2023-07-29T08:36:58;19.60;91.10
55785;DHT22;41709;52.536;5.688;2023-07-29T08:39:25;19.60;91.40
55785;DHT22;41709;52.536;5.688;2023-07-29T08:41:56;19.60;91.50
55785;DHT22;41709;52.536;5.688;2023-07-29T08:44:26;19.70;90.80
55785;DHT22;41709;52.536;5.688;2023-07-29T08:46:52;19.70;90.90
55785;DHT22;41709;52.536;5.688;2023-07-29T08:49:19;19.80;90.70
55785;DHT22;41709;52.536;5.688;2023-07-29T08:51:46;19.90;90.40
55785;DHT22;41709;52.536;5.688;2023-07-29T08:54:13;19.80;90.30
55785;DHT22;41709;52.536;5.688;2023-07-29T08:56:41;19.90;90.00
55785;DHT22;41709;52.536;5.688;2023-07-29T08:59:10;19.90;90.00
55785;DHT22;41709;52.536;5.688;2023-07-29T09:01:38;19.90;90.20
55785;DHT22;41709;52.536;5.688;2023-07-29T09:04:03;20.00;89.90
55785;DHT22;41709;52.536;5.688;2023-07-29T09:06:30;20.00;89.90
55785;DHT22;41709;52.536;5.688;2023-07-29T09:08:56;20.10;89.60
55785;DHT22;41709;52.536;5.688;2023-07-29T09:11:22;20.10;90.00
55785;DHT22;41709;52.536;5.688;2023-07-29T09:13:48;20.10;89.90
55785;DHT22;41709;52.536;5.688;2023-07-29T09:16:14;20.10;89.80
55785;DHT22;41709;52.536;5.688;2023-07-29T09:18:40;19.90;90.10
55785;DHT22;41709;52.536;5.688;2023-07-29T09:21:06;19.90;90.80
55785;DHT22;41709;52.536;5.688;2023-07-29T09:23:41;19.90;90.70
55785;DHT22;41709;52.536;5.688;2023-07-29T09:26:07;20.00;91.00
55785;DHT22;41709;52.536;5.688;2023-07-29T09:28:34;20.00;90.10
55785;DHT22;41709;52.536;5.688;2023-07-29T09:31:00;19.80;90.10
55785;DHT22;41709;52.536;5.688;2023-07-29T09:33:26;19.70;89.60
55785;DHT22;41709;52.536;5.688;2023-07-29T09:35:52;19.60;90.30
55785;DHT22;41709;52.536;5.688;2023-07-29T09:38:17;19.50;90.80
55785;DHT22;41709;52.536;5.688;2023-07-29T09:40:43;19.60;90.80
55785;DHT22;41709;52.536;5.688;2023-07-29T09:43:10;19.70;91.10
55785;DHT22;41709;52.536;5.688;2023-07-29T09:45:37;19.80;91.00
55785;DHT22;41709;52.536;5.688;2023-07-29T09:48:04;19.80;90.50
55785;DHT22;41709;52.536;5.688;2023-07-29T09:50:35;19.90;90.50
55785;DHT22;41709;52.536;5.688;2023-07-29T09:53:03;20.10;90.40
55785;DHT22;41709;52.536;5.688;2023-07-29T09:55:29;20.20;89.60
55785;DHT22;41709;52.536;5.688;2023-07-29T09:58:00;20.20;88.90
55785;DHT22;41709;52.536;5.688;2023-07-29T10:00:33;20.30;89.40
55785;DHT22;41709;52.536;5.688;2023-07-29T10:02:59;20.30;88.10
55785;DHT22;41709;52.536;5.688;2023-07-29T10:05:28;20.30;87.30
55785;DHT22;41709;52.536;5.688;2023-07-29T10:07:55;20.10;85.70
55785;DHT22;41709;52.536;5.688;2023-07-29T10:10:21;19.90;85.40
55785;DHT22;41709;52.536;5.688;2023-07-29T10:12:47;19.90;85.90
55785;DHT22;41709;52.536;5.688;2023-07-29T10:15:13;19.90;86.60
55785;DHT22;41709;52.536;5.688;2023-07-29T10:17:39;19.80;85.40
55785;DHT22;41709;52.536;5.688;2023-07-29T10:20:07;19.70;86.10
55785;DHT22;41709;52.536;5.688;2023-07-29T10:22:39;19.70;86.70
55785;DHT22;41709;52.536;5.688;2023-07-29T10:25:08;19.60;86.70
55785;DHT22;41709;52.536;5.688;2023-07-29T10:27:52;19.60;87.70
55785;DHT22;41709;52.536;5.688;2023-07-29T10:30:18;19.60;88.60
55785;DHT22;41709;52.536;5.688;2023-07-29T10:32:45;19.60;89.10
55785;DHT22;41709;52.536;5.688;2023-07-29T10:35:14;19.70;89.50
55785;DHT22;41709;52.536;5.688;2023-07-29T10:37:41;19.80;89.10
55785;DHT22;41709;52.536;5.688;2023-07-29T10:40:09;19.90;88.10
55785;DHT22;41709;52.536;5.688;2023-07-29T10:42:35;20.00;89.80
55785;DHT22;41709;52.536;5.688;2023-07-29T10:45:17;20.10;87.20
55785;DHT22;41709;52.536;5.688;2023-07-29T10:47:43;20.10;88.80
55785;DHT22;41709;52.536;5.688;2023-07-29T10:50:18;20.20;88.30
55785;DHT22;41709;52.536;5.688;2023-07-29T10:52:43;20.20;89.10
55785;DHT22;41709;52.536;5.688;2023-07-29T10:55:32;20.30;88.30
55785;DHT22;41709;52.536;5.688;2023-07-29T10:58:16;20.30;87.90
55785;DHT22;41709;52.536;5.688;2023-07-29T11:00:45;20.50;87.90
55785;DHT22;41709;52.536;5.688;2023-07-29T11:03:12;20.60;85.50
55785;DHT22;41709;52.536;5.688;2023-07-29T11:05:48;20.60;85.60
55785;DHT22;41709;52.536;5.688;2023-07-29T11:08:29;20.70;86.20
55785;DHT22;41709;52.536;5.688;2023-07-29T11:11:09;20.80;85.80
55785;DHT22;41709;52.536;5.688;2023-07-29T11:13:38;20.80;85.70
55785;DHT22;41709;52.536;5.688;2023-07-29T11:16:04;20.90;84.20
55785;DHT22;41709;52.536;5.688;2023-07-29T11:18:32;21.00;84.50
55785;DHT22;41709;52.536;5.688;2023-07-29T11:21:00;21.00;84.70
55785;DHT22;41709;52.536;5.688;2023-07-29T11:23:34;21.20;83.30
55785;DHT22;41709;52.536;5.688;2023-07-29T11:26:01;21.20;82.50
55785;DHT22;41709;52.536;5.688;2023-07-29T11:28:27;21.10;83.30
55785;DHT22;41709;52.536;5.688;2023-07-29T11:30:54;21.10;83.50
55785;DHT22;41709;52.536;5.688;2023-07-29T11:33:25;21.10;84.00
55785;DHT22;41709;52.536;5.688;2023-07-29T11:35:53;21.10;83.70
55785;DHT22;41709;52.536;5.688;2023-07-29T11:38:20;21.20;83.60
55785;DHT22;41709;52.536;5.688;2023-07-29T11:41:00;21.20;83.50
55785;DHT22;41709;52.536;5.688;2023-07-29T11:43:26;21.20;83.80
55785;DHT22;41709;52.536;5.688;2023-07-29T11:45:52;21.20;83.00
55785;DHT22;41709;52.536;5.688;2023-07-29T11:48:25;21.10;83.00
55785;DHT22;41709;52.536;5.688;2023-07-29T11:50:51;21.00;83.60
55785;DHT22;41709;52.536;5.688;2023-07-29T11:53:16;21.00;83.20
55785;DHT22;41709;52.536;5.688;2023-07-29T11:55:42;20.90;84.30
55785;DHT22;41709;52.536;5.688;2023-07-29T11:58:08;21.00;83.80
55785;DHT22;41709;52.536;5.688;2023-07-29T12:00:33;21.10;84.00
55785;DHT22;41709;52.536;5.688;2023-07-29T12:02:59;21.00;83.00
55785;DHT22;41709;52.536;5.688;2023-07-29T12:05:25;21.00;83.60
55785;DHT22;41709;52.536;5.688;2023-07-29T12:07:51;21.00;83.00
55785;DHT22;41709;52.536;5.688;2023-07-29T12:10:17;21.00;83.20
55785;DHT22;41709;52.536;5.688;2023-07-29T12:12:45;20.90;83.80
55785;DHT22;41709;52.536;5.688;2023-07-29T12:15:11;20.80;82.60
55785;DHT22;41709;52.536;5.688;2023-07-29T12:17:40;20.70;83.90
55785;DHT22;41709;52.536;5.688;2023-07-29T12:20:11;20.60;85.50
55785;DHT22;41709;52.536;5.688;2023-07-29T12:22:36;20.70;85.00
55785;DHT22;41709;52.536;5.688;2023-07-29T12:25:03;20.80;86.00
55785;DHT22;41709;52.536;5.688;2023-07-29T12:27:30;20.90;84.20
55785;DHT22;41709;52.536;5.688;2023-07-29T12:29:57;21.00;84.30
55785;DHT22;41709;52.536;5.688;2023-07-29T12:32:25;21.00;83.80
55785;DHT22;41709;52.536;5.688;2023-07-29T12:34:53;21.10;85.00
55785;DHT22;41709;52.536;5.688;2023-07-29T12:37:19;21.10;84.40
55785;DHT22;41709;52.536;5.688;2023-07-29T12:39:44;21.00;83.90
55785;DHT22;41709;52.536;5.688;2023-07-29T12:42:10;21.00;84.80
55785;DHT22;41709;52.536;5.688;2023-07-29T12:44:38;20.90;84.10
55785;DHT22;41709;52.536;5.688;2023-07-29T12:47:05;20.90;84.50
55785;DHT22;41709;52.536;5.688;2023-07-29T12:49:31;20.90;83.50
55785;DHT22;41709;52.536;5.688;2023-07-29T12:51:57;20.90;84.50
55785;DHT22;41709;52.536;5.688;2023-07-29T12:54:23;20.90;86.10
55785;DHT22;41709;52.536;5.688;2023-07-29T12:56:49;20.90;86.80
55785;DHT22;41709;52.536;5.688;2023-07-29T12:59:15;20.90;89.10
55785;DHT22;41709;52.536;5.688;2023-07-29T13:01:40;21.00;89.90
55785;DHT22;41709;52.536;5.688;2023-07-29T13:04:06;21.10;90.10
55785;DHT22;41709;52.536;5.688;2023-07-29T13:06:32;21.10;89.10
55785;DHT22;41709;52.536;5.688;2023-07-29T13:08:57;21.10;90.50
55785;DHT22;41709;52.536;5.688;2023-07-29T13:11:23;21.10;89.90
55785;DHT22;41709;52.536;5.688;2023-07-29T13:13:49;21.00;90.50
55785;DHT22;41709;52.536;5.688;2023-07-29T13:16:15;20.90;90.80
55785;DHT22;41709;52.536;5.688;2023-07-29T13:18:40;20.70;91.50
55785;DHT22;41709;52.536;5.688;2023-07-29T13:21:08;20.60;92.30
55785;DHT22;41709;52.536;5.688;2023-07-29T13:23:33;20.80;92.90
55785;DHT22;41709;52.536;5.688;2023-07-29T13:25:59;20.70;91.90
55785;DHT22;41709;52.536;5.688;2023-07-29T13:28:25;20.80;90.50
55785;DHT22;41709;52.536;5.688;2023-07-29T13:30:50;20.90;90.30
55785;DHT22;41709;52.536;5.688;2023-07-29T13:33:16;20.90;90.40
55785;DHT22;41709;52.536;5.688;2023-07-29T13:35:42;20.80;90.80
55785;DHT22;41709;52.536;5.688;2023-07-29T13:38:07;20.80;90.80
55785;DHT22;41709;52.536;5.688;2023-07-29T13:40:34;20.80;91.20
55785;DHT22;41709;52.536;5.688;2023-07-29T13:42:59;20.70;90.50
55785;DHT22;41709;52.536;5.688;2023-07-29T13:45:25;20.50;91.70
55785;DHT22;41709;52.536;5.688;2023-07-29T13:47:50;20.40;92.50
55785;DHT22;41709;52.536;5.688;2023-07-29T13:50:17;20.50;90.60
55785;DHT22;41709;52.536;5.688;2023-07-29T13:52:43;20.50;90.30
55785;DHT22;41709;52.536;5.688;2023-07-29T13:55:09;20.40;89.00
55785;DHT22;41709;52.536;5.688;2023-07-29T13:57:35;20.40;90.20
55785;DHT22;41709;52.536;5.688;2023-07-29T14:00:01;20.30;90.30
55785;DHT22;41709;52.536;5.688;2023-07-29T14:02:27;20.40;90.10
55785;DHT22;41709;52.536;5.688;2023-07-29T14:04:52;20.60;90.20
55785;DHT22;41709;52.536;5.688;2023-07-29T14:07:18;20.70;90.20
55785;DHT22;41709;52.536;5.688;2023-07-29T14:09:44;20.80;90.30
55785;DHT22;41709;52.536;5.688;2023-07-29T14:12:09;21.00;90.10
55785;DHT22;41709;52.536;5.688;2023-07-29T14:14:38;21.10;89.40
55785;DHT22;41709;52.536;5.688;2023-07-29T14:17:04;21.20;87.70
55785;DHT22;41709;52.536;5.688;2023-07-29T14:19:31;21.30;87.20
55785;DHT22;41709;52.536;5.688;2023-07-29T14:21:56;21.40;87.40
55785;DHT22;41709;52.536;5.688;2023-07-29T14:24:22;21.40;85.60
55785;DHT22;41709;52.536;5.688;2023-07-29T14:26:48;21.40;85.60
55785;DHT22;41709;52.536;5.688;2023-07-29T14:29:13;21.40;86.40
55785;DHT22;41709;52.536;5.688;2023-07-29T14:31:39;21.50;85.90
55785;DHT22;41709;52.536;5.688;2023-07-29T14:34:04;21.70;86.30
55785;DHT22;41709;52.536;5.688;2023-07-29T14:36:30;21.80;83.80
55785;DHT22;41709;52.536;5.688;2023-07-29T14:38:56;21.80;83.80
55785;DHT22;41709;52.536;5.688;2023-07-29T14:41:21;21.80;83.50
55785;DHT22;41709;52.536;5.688;2023-07-29T14:43:47;21.80;83.40
55785;DHT22;41709;52.536;5.688;2023-07-29T14:46:12;21.90;84.70
55785;DHT22;41709;52.536;5.688;2023-07-29T14:48:38;21.90;84.30
55785;DHT22;41709;52.536;5.688;2023-07-29T14:51:03;22.10;83.70
55785;DHT22;41709;52.536;5.688;2023-07-29T14:53:29;22.30;84.00
55785;DHT22;41709;52.536;5.688;2023-07-29T14:55:54;22.40;83.20
55785;DHT22;41709;52.536;5.688;2023-07-29T14:58:20;22.50;83.30
55785;DHT22;41709;52.536;5.688;2023-07-29T15:00:46;22.50;81.90
55785;DHT22;41709;52.536;5.688;2023-07-29T15:03:11;22.50;82.50
55785;DHT22;41709;52.536;5.688;2023-07-29T15:05:37;22.60;80.90
55785;DHT22;41709;52.536;5.688;2023-07-29T15:08:02;22.50;81.70
55785;DHT22;41709;52.536;5.688;2023-07-29T15:10:28;22.50;84.20
55785;DHT22;41709;52.536;5.688;2023-07-29T15:12:54;22.50;82.90
55785;DHT22;41709;52.536;5.688;2023-07-29T15:15:19;22.50;81.20
55785;DHT22;41709;52.536;5.688;2023-07-29T15:17:45;22.60;81.10
55785;DHT22;41709;52.536;5.688;2023-07-29T15:20:11;22.70;81.80
55785;DHT22;41709;52.536;5.688;2023-07-29T15:22:37;22.80;81.70
55785;DHT22;41709;52.536;5.688;2023-07-29T15:25:03;22.90;81.90
55785;DHT22;41709;52.536;5.688;2023-07-29T15:27:30;23.10;81.40